createdAt,value
2018-05-10T00:00:17.585Z,0.00
2018-05-10T00:01:17.586Z,0.00
2018-05-10T00:02:17.574Z,0.00
2018-05-10T00:03:17.572Z,0.00
2018-05-10T00:04:17.566Z,0.00
2018-05-10T00:05:17.573Z,0.00
2018-05-10T00:06:17.549Z,0.00
2018-05-10T00:07:17.553Z,0.00
2018-05-10T00:08:17.547Z,0.00
2018-05-10T00:09:17.538Z,0.00
2018-05-10T00:10:17.540Z,0.00
2018-05-10T00:11:17.535Z,0.00
2018-05-10T00:12:17.521Z,0.00
2018-05-10T00:13:17.537Z,0.00
2018-05-10T00:14:17.520Z,0.00
2018-05-10T00:15:17.512Z,0.00
2018-05-10T00:16:17.508Z,0.00
2018-05-10T00:17:17.501Z,0.00
2018-05-10T00:18:17.500Z,0.00
2018-05-10T00:19:17.489Z,0.00
2018-05-10T00:20:17.505Z,0.00
2018-05-10T00:21:17.487Z,0.00
2018-05-10T00:22:17.482Z,0.00
2018-05-10T00:23:17.475Z,0.00
2018-05-10T00:24:17.484Z,0.00
2018-05-10T00:25:17.458Z,0.00
2018-05-10T00:26:17.471Z,0.00
2018-05-10T00:27:17.454Z,0.00
2018-05-10T00:28:17.455Z,0.00
2018-05-10T00:29:17.452Z,0.00
2018-05-10T00:30:17.448Z,0.00
2018-05-10T00:31:17.436Z,0.00
2018-05-10T00:32:17.427Z,0.00
2018-05-10T00:33:17.421Z,0.00
2018-05-10T00:34:17.422Z,0.00
2018-05-10T00:35:17.425Z,0.00
2018-05-10T00:36:17.404Z,0.00
2018-05-10T00:37:17.410Z,0.00
2018-05-10T00:38:17.407Z,0.00
2018-05-10T00:39:17.390Z,0.00
2018-05-10T00:40:17.392Z,0.00
2018-05-10T00:41:17.391Z,0.00
2018-05-10T00:42:17.387Z,0.00
2018-05-10T00:43:17.380Z,0.00
2018-05-10T00:44:17.390Z,0.00
2018-05-10T00:45:17.368Z,0.00
2018-05-10T00:46:17.356Z,0.00
2018-05-10T00:47:17.359Z,0.00
2018-05-10T00:48:17.356Z,0.00
2018-05-10T00:49:17.365Z,0.00
2018-05-10T00:50:17.348Z,0.00
2018-05-10T00:51:17.348Z,0.00
2018-05-10T00:52:17.348Z,0.00
2018-05-10T00:53:17.339Z,0.00
2018-05-10T00:54:17.339Z,0.00
2018-05-10T00:55:17.333Z,0.00
2018-05-10T00:56:17.314Z,0.00
2018-05-10T00:57:17.320Z,0.00
2018-05-10T00:58:17.314Z,0.00
2018-05-10T00:59:17.397Z,0.00
2018-05-10T01:00:17.316Z,0.00
2018-05-10T01:01:17.297Z,0.00
2018-05-10T01:02:17.297Z,0.00
2018-05-10T01:03:17.289Z,0.00
2018-05-10T01:04:17.284Z,0.00
2018-05-10T01:05:17.283Z,0.00
2018-05-10T01:06:17.291Z,0.00
2018-05-10T01:07:17.274Z,0.00
2018-05-10T01:08:17.264Z,0.00
2018-05-10T01:09:17.297Z,0.00
2018-05-10T01:10:17.265Z,0.00
2018-05-10T01:11:18.209Z,0.00
2018-05-10T01:12:17.247Z,0.00
2018-05-10T01:13:18.228Z,0.00
2018-05-10T01:14:17.241Z,0.00
2018-05-10T01:15:17.234Z,0.00
2018-05-10T01:16:17.230Z,0.00
2018-05-10T01:17:17.223Z,0.00
2018-05-10T01:18:17.223Z,0.00
2018-05-10T01:19:17.212Z,0.00
2018-05-10T01:20:17.213Z,0.00
2018-05-10T01:21:17.217Z,0.00
2018-05-10T01:22:17.197Z,0.00
2018-05-10T01:23:17.232Z,0.00
2018-05-10T01:24:17.197Z,0.00
2018-05-10T01:25:17.193Z,0.00
2018-05-10T01:26:17.185Z,0.00
2018-05-10T01:27:17.182Z,0.00
2018-05-10T01:28:17.178Z,0.00
2018-05-10T01:29:17.177Z,0.00
2018-05-10T01:30:17.169Z,0.00
2018-05-10T02:02:19.255Z,0.00
2018-05-10T02:03:19.209Z,0.00
2018-05-10T02:04:19.204Z,0.00
2018-05-10T02:05:19.182Z,0.00
2018-05-10T02:06:19.174Z,0.00
2018-05-10T02:07:19.167Z,0.00
2018-05-10T02:08:19.176Z,0.00
2018-05-10T02:09:19.141Z,0.00
2018-05-10T02:10:19.138Z,0.00
2018-05-10T02:11:19.157Z,0.00
2018-05-10T02:12:19.127Z,0.00
2018-05-10T02:13:19.120Z,0.00
2018-05-10T02:14:19.129Z,0.00
2018-05-10T02:15:19.124Z,0.00
2018-05-10T02:16:19.103Z,0.00
2018-05-10T02:17:19.095Z,0.00
2018-05-10T02:18:19.088Z,0.00
2018-05-10T02:19:19.086Z,0.00
2018-05-10T02:20:19.071Z,0.00
2018-05-10T02:21:19.078Z,0.00
2018-05-10T02:22:19.067Z,0.00
2018-05-10T02:23:19.067Z,0.00
2018-05-10T02:24:19.069Z,0.00
2018-05-10T02:25:19.050Z,0.00
2018-05-10T02:26:19.067Z,0.00
2018-05-10T02:27:19.043Z,0.00
2018-05-10T02:28:19.052Z,0.00
2018-05-10T02:29:19.029Z,0.00
2018-05-10T02:30:19.029Z,0.00
2018-05-10T02:31:19.030Z,0.00
2018-05-10T02:32:19.029Z,0.00
2018-05-10T02:33:19.022Z,0.00
2018-05-10T02:34:19.005Z,0.00
2018-05-10T02:35:19.010Z,0.00
2018-05-10T02:36:19.784Z,0.00
2018-05-10T02:37:19.001Z,0.00
2018-05-10T02:38:19.012Z,0.00
2018-05-10T02:39:18.997Z,0.00
2018-05-10T02:40:18.988Z,0.00
2018-05-10T02:41:19.014Z,0.00
2018-05-10T02:42:18.986Z,0.00
2018-05-10T02:43:19.061Z,0.00
2018-05-10T02:44:18.976Z,0.00
2018-05-10T02:45:19.014Z,0.00
2018-05-10T02:46:19.008Z,0.00
2018-05-10T02:47:19.018Z,0.00
2018-05-10T02:48:18.942Z,0.00
2018-05-10T02:49:18.943Z,0.00
2018-05-10T02:50:18.946Z,0.00
2018-05-10T02:51:18.956Z,0.00
2018-05-10T02:52:18.935Z,0.00
2018-05-10T02:53:18.928Z,0.00
2018-05-10T02:54:18.926Z,0.00
2018-05-10T02:55:18.936Z,0.00
2018-05-10T02:56:18.917Z,0.00
2018-05-10T02:57:18.914Z,0.00
2018-05-10T02:58:18.920Z,0.00
2018-05-10T02:59:18.905Z,0.00
2018-05-10T03:00:18.904Z,0.00
2018-05-10T03:01:18.897Z,0.00
2018-05-10T03:02:18.896Z,0.00
2018-05-10T03:03:18.903Z,0.00
2018-05-10T03:04:18.916Z,0.00
2018-05-10T03:05:18.905Z,0.00
2018-05-10T03:06:18.889Z,0.00
2018-05-10T03:07:18.871Z,0.00
2018-05-10T03:08:18.860Z,0.00
2018-05-10T03:09:18.850Z,0.00
2018-05-10T03:10:18.855Z,0.00
2018-05-10T03:11:18.864Z,0.00
2018-05-10T03:12:18.847Z,0.00
2018-05-10T03:13:18.844Z,0.00
2018-05-10T03:14:18.836Z,0.00
2018-05-10T03:15:18.861Z,0.00
2018-05-10T03:16:18.864Z,0.00
2018-05-10T03:17:18.842Z,0.00
2018-05-10T03:18:18.847Z,0.00
2018-05-10T03:19:18.829Z,0.00
2018-05-10T03:20:18.861Z,0.00
2018-05-10T03:21:18.807Z,0.00
2018-05-10T03:22:18.798Z,0.00
2018-05-10T03:23:18.796Z,0.00
2018-05-10T03:24:18.799Z,0.00
2018-05-10T03:25:18.805Z,0.00
2018-05-10T03:26:18.790Z,0.00
2018-05-10T03:27:18.782Z,0.00
2018-05-10T03:28:18.774Z,0.00
2018-05-10T03:29:18.776Z,4.00
2018-05-10T03:30:18.780Z,4.00
2018-05-10T03:31:18.773Z,0.00
2018-05-10T03:32:18.760Z,4.00
2018-05-10T03:33:18.837Z,4.00
2018-05-10T03:34:18.756Z,4.00
2018-05-10T03:35:18.770Z,4.00
2018-05-10T03:36:18.744Z,8.00
2018-05-10T03:37:18.742Z,4.00
2018-05-10T03:38:18.738Z,8.00
2018-05-10T03:39:18.742Z,8.00
2018-05-10T03:40:18.743Z,12.00
2018-05-10T03:41:18.721Z,16.00
2018-05-10T03:42:18.754Z,20.00
2018-05-10T03:43:18.724Z,20.00
2018-05-10T03:44:18.725Z,24.00
2018-05-10T03:45:18.729Z,32.00
2018-05-10T03:46:18.738Z,36.00
2018-05-10T03:47:18.692Z,40.00
2018-05-10T03:48:18.706Z,52.00
2018-05-10T03:49:18.701Z,56.00
2018-05-10T03:50:18.696Z,68.00
2018-05-10T03:51:18.684Z,72.00
2018-05-10T03:52:18.685Z,84.00
2018-05-10T03:53:18.675Z,100.00
2018-05-10T03:54:18.683Z,116.00
2018-05-10T03:55:18.670Z,128.00
2018-05-10T03:56:18.679Z,144.00
2018-05-10T03:57:18.683Z,152.00
2018-05-10T03:58:18.698Z,160.00
2018-05-10T03:59:18.699Z,172.00
2018-05-10T04:00:18.650Z,184.00
2018-05-10T04:01:18.643Z,188.00
2018-05-10T04:02:18.634Z,196.00
2018-05-10T04:03:18.632Z,200.00
2018-05-10T04:04:18.627Z,200.00
2018-05-10T04:05:18.624Z,200.00
2018-05-10T04:06:18.622Z,204.00
2018-05-10T04:07:18.614Z,208.00
2018-05-10T04:08:18.609Z,220.00
2018-05-10T04:09:18.605Z,228.00
2018-05-10T04:10:18.594Z,248.00
2018-05-10T04:11:18.617Z,264.00
2018-05-10T04:12:18.591Z,292.00
2018-05-10T04:13:18.591Z,324.00
2018-05-10T04:14:18.578Z,364.00
2018-05-10T04:15:18.571Z,408.00
2018-05-10T04:16:18.574Z,464.00
2018-05-10T04:17:18.590Z,528.00
2018-05-10T04:18:18.572Z,604.00
2018-05-10T04:19:18.578Z,684.00
2018-05-10T04:20:18.561Z,772.00
2018-05-10T04:21:18.601Z,872.00
2018-05-10T04:22:18.565Z,976.00
2018-05-10T04:23:18.540Z,1080.00
2018-05-10T04:24:18.540Z,1180.00
2018-05-10T04:25:18.559Z,1288.00
2018-05-10T04:26:18.549Z,1392.00
2018-05-10T04:27:18.528Z,1484.00
2018-05-10T04:28:18.528Z,1572.00
2018-05-10T04:29:18.520Z,1660.00
2018-05-10T04:30:18.518Z,1740.00
2018-05-10T04:31:18.503Z,1816.00
2018-05-10T04:32:18.542Z,1892.00
2018-05-10T04:33:18.513Z,1968.00
2018-05-10T04:34:18.511Z,2060.00
2018-05-10T04:35:18.518Z,2172.00
2018-05-10T04:36:18.504Z,2300.00
2018-05-10T04:37:18.484Z,2448.00
2018-05-10T04:38:18.495Z,2596.00
2018-05-10T04:39:18.471Z,2744.00
2018-05-10T04:40:18.482Z,2876.00
2018-05-10T04:41:18.472Z,2976.00
2018-05-10T04:42:18.490Z,3052.00
2018-05-10T04:43:18.460Z,3108.00
2018-05-10T04:44:18.453Z,3164.00
2018-05-10T04:45:18.470Z,3216.00
2018-05-10T04:46:18.445Z,3264.00
2018-05-10T04:47:18.457Z,3312.00
2018-05-10T04:48:18.455Z,3360.00
2018-05-10T04:49:18.435Z,3420.00
2018-05-10T04:50:18.438Z,3528.00
2018-05-10T04:51:18.428Z,3652.00
2018-05-10T04:52:18.437Z,3768.00
2018-05-10T04:53:18.442Z,3864.00
2018-05-10T04:54:18.449Z,3992.00
2018-05-10T04:55:18.445Z,4176.00
2018-05-10T04:56:18.431Z,4408.00
2018-05-10T04:57:18.436Z,4644.00
2018-05-10T04:58:18.463Z,4844.00
2018-05-10T04:59:18.438Z,5084.00
2018-05-10T05:00:18.410Z,5360.00
2018-05-10T05:01:18.401Z,5764.00
2018-05-10T05:02:18.398Z,6200.00
2018-05-10T05:03:18.386Z,6576.00
2018-05-10T05:04:18.366Z,7024.00
2018-05-10T05:05:18.371Z,7500.00
2018-05-10T05:06:18.363Z,7988.00
2018-05-10T05:07:18.381Z,8452.00
2018-05-10T05:08:18.365Z,8876.00
2018-05-10T05:09:18.352Z,9152.00
2018-05-10T05:10:18.377Z,9300.00
2018-05-10T05:11:18.351Z,9364.00
2018-05-10T05:12:18.344Z,9400.00
2018-05-10T05:13:18.349Z,9412.00
2018-05-10T05:14:18.327Z,9588.00
2018-05-10T05:15:18.333Z,9848.00
2018-05-10T05:16:18.328Z,10260.00
2018-05-10T05:17:18.326Z,10720.00
2018-05-10T05:18:18.321Z,11132.00
2018-05-10T05:19:18.317Z,11428.00
2018-05-10T05:20:18.315Z,11748.00
2018-05-10T05:21:18.317Z,12376.00
2018-05-10T05:22:18.307Z,12920.00
2018-05-10T05:23:18.303Z,12320.00
2018-05-10T05:24:18.316Z,12504.00
2018-05-10T05:25:18.289Z,13312.00
2018-05-10T05:26:18.289Z,12596.00
2018-05-10T05:27:18.292Z,13144.00
2018-05-10T05:28:18.296Z,13376.00
2018-05-10T05:29:18.283Z,13424.00
2018-05-10T05:30:18.289Z,13680.00
2018-05-10T05:31:18.295Z,13716.00
2018-05-10T05:32:18.273Z,13696.00
2018-05-10T05:33:18.274Z,13524.00
2018-05-10T05:34:18.275Z,13548.00
2018-05-10T05:35:18.267Z,13308.00
2018-05-10T05:36:18.276Z,13300.00
2018-05-10T05:37:18.274Z,12516.00
2018-05-10T05:38:18.261Z,12188.00
2018-05-10T05:39:18.259Z,11700.00
2018-05-10T05:40:18.275Z,11276.00
2018-05-10T05:41:18.321Z,10984.00
2018-05-10T05:42:18.254Z,10640.00
2018-05-10T05:43:18.294Z,10296.00
2018-05-10T05:44:18.251Z,10292.00
2018-05-10T05:45:18.246Z,10332.00
2018-05-10T05:46:18.252Z,10400.00
2018-05-10T05:47:18.243Z,10468.00
2018-05-10T05:48:18.237Z,9968.00
2018-05-10T05:49:18.237Z,10636.00
2018-05-10T05:50:18.235Z,10904.00
2018-05-10T05:51:18.347Z,10416.00
2018-05-10T05:52:18.228Z,10168.00
2018-05-10T05:53:18.235Z,10908.00
2018-05-10T05:54:18.232Z,11804.00
2018-05-10T05:55:18.224Z,12144.00
2018-05-10T05:56:18.221Z,10768.00
2018-05-10T05:57:18.220Z,12028.00
2018-05-10T05:58:18.217Z,12180.00
2018-05-10T05:59:18.222Z,11776.00
2018-05-10T06:00:18.206Z,12188.00
2018-05-10T06:01:18.210Z,12464.00
2018-05-10T06:02:18.208Z,12576.00
2018-05-10T06:03:18.234Z,12728.00
2018-05-10T06:04:18.214Z,13244.00
2018-05-10T06:05:18.225Z,15380.00
2018-05-10T06:06:18.198Z,12992.00
2018-05-10T06:07:18.195Z,14436.00
2018-05-10T06:08:18.223Z,15024.00
2018-05-10T06:09:18.192Z,14536.00
2018-05-10T06:10:18.191Z,15328.00
2018-05-10T06:11:18.185Z,16720.00
2018-05-10T06:12:18.184Z,16340.00
2018-05-10T06:13:18.176Z,15096.00
2018-05-10T06:14:18.180Z,15948.00
2018-05-10T06:15:18.178Z,14936.00
2018-05-10T06:16:18.173Z,14364.00
2018-05-10T06:17:18.172Z,15644.00
2018-05-10T06:18:18.173Z,14972.00
2018-05-10T06:19:18.166Z,14832.00
2018-05-10T06:20:18.165Z,12532.00
2018-05-10T06:21:18.186Z,12868.00
2018-05-10T06:22:18.163Z,15224.00
2018-05-10T06:23:18.164Z,17152.00
2018-05-10T06:24:18.152Z,14580.00
2018-05-10T06:25:18.161Z,15660.00
2018-05-10T06:26:18.157Z,15188.00
2018-05-10T06:27:18.169Z,12616.00
2018-05-10T06:28:18.167Z,11748.00
2018-05-10T06:29:18.165Z,11328.00
2018-05-10T06:30:18.148Z,11664.00
2018-05-10T06:31:18.142Z,11412.00
2018-05-10T06:32:18.140Z,11416.00
2018-05-10T06:33:18.133Z,12236.00
2018-05-10T06:34:18.140Z,10016.00
2018-05-10T06:35:18.142Z,10180.00
2018-05-10T06:36:18.136Z,9056.00
2018-05-10T06:37:18.150Z,9408.00
2018-05-10T06:38:18.144Z,9272.00
2018-05-10T06:39:18.131Z,12008.00
2018-05-10T06:40:18.134Z,16296.00
2018-05-10T06:41:18.137Z,19712.00
2018-05-10T06:42:18.126Z,14204.00
2018-05-10T06:43:18.116Z,15124.00
2018-05-10T06:44:18.117Z,15900.00
2018-05-10T06:45:18.114Z,15488.00
2018-05-10T06:46:18.114Z,18592.00
2018-05-10T06:47:18.113Z,18592.00
2018-05-10T06:48:18.107Z,17472.00
2018-05-10T06:49:18.101Z,17952.00
2018-05-10T06:50:18.103Z,20000.00
2018-05-10T06:51:18.099Z,21568.00
2018-05-10T06:52:18.098Z,23392.00
2018-05-10T06:53:18.094Z,27872.00
2018-05-10T06:54:18.094Z,27616.00
2018-05-10T06:55:18.086Z,27072.00
2018-05-10T06:56:18.135Z,22944.00
2018-05-10T06:57:18.092Z,27520.00
2018-05-10T06:58:18.092Z,27168.00
2018-05-10T06:59:18.092Z,25632.00
2018-05-10T07:00:18.083Z,21088.00
2018-05-10T07:01:18.084Z,19968.00
2018-05-10T07:02:18.081Z,20864.00
2018-05-10T07:03:18.137Z,22784.00
2018-05-10T07:04:18.094Z,21952.00
2018-05-10T07:05:18.081Z,19904.00
2018-05-10T07:06:18.083Z,18880.00
2018-05-10T07:07:18.084Z,17472.00
2018-05-10T07:08:18.080Z,17120.00
2018-05-10T07:09:18.127Z,17408.00
2018-05-10T07:10:18.079Z,17280.00
2018-05-10T07:11:18.087Z,16412.00
2018-05-10T07:12:18.078Z,15364.00
2018-05-10T07:13:18.082Z,14000.00
2018-05-10T07:14:18.078Z,13024.00
2018-05-10T07:15:18.107Z,12528.00
2018-05-10T07:16:18.077Z,12024.00
2018-05-10T07:17:18.077Z,11436.00
2018-05-10T07:18:18.076Z,11804.00
2018-05-10T07:19:18.074Z,11452.00
2018-05-10T07:20:19.120Z,12404.00
2018-05-10T07:21:18.073Z,12220.00
2018-05-10T07:22:18.069Z,13176.00
2018-05-10T07:23:18.063Z,12076.00
2018-05-10T07:24:18.067Z,12744.00
2018-05-10T07:25:18.208Z,12928.00
2018-05-10T07:26:18.068Z,13380.00
2018-05-10T07:27:18.064Z,13520.00
2018-05-10T07:28:18.065Z,13596.00
2018-05-10T07:29:18.063Z,14112.00
2018-05-10T07:30:18.059Z,14260.00
2018-05-10T07:31:18.061Z,14312.00
2018-05-10T07:32:18.061Z,13728.00
2018-05-10T07:33:18.054Z,14456.00
2018-05-10T07:34:18.055Z,14692.00
2018-05-10T07:35:18.047Z,15332.00
2018-05-10T07:36:18.054Z,16828.00
2018-05-10T07:37:18.083Z,18624.00
2018-05-10T07:38:18.051Z,19680.00
2018-05-10T07:39:18.055Z,20352.00
2018-05-10T07:40:18.051Z,20576.00
2018-05-10T07:41:18.050Z,19584.00
2018-05-10T07:42:18.051Z,18784.00
2018-05-10T07:43:18.094Z,18432.00
2018-05-10T07:44:18.042Z,17180.00
2018-05-10T07:45:18.037Z,18592.00
2018-05-10T07:46:18.048Z,17696.00
2018-05-10T07:47:18.093Z,18432.00
2018-05-10T07:48:18.038Z,18080.00
2018-05-10T07:49:18.037Z,19072.00
2018-05-10T07:50:18.049Z,19136.00
2018-05-10T07:51:18.086Z,16648.00
2018-05-10T07:52:18.042Z,15080.00
2018-05-10T07:53:18.099Z,15164.00
2018-05-10T07:54:18.042Z,11988.00
2018-05-10T07:55:18.039Z,15368.00
2018-05-10T07:56:18.042Z,20064.00
2018-05-10T07:57:18.035Z,20512.00
2018-05-10T07:58:18.055Z,18592.00
2018-05-10T07:59:18.029Z,22496.00
2018-05-10T08:00:18.035Z,20416.00
2018-05-10T08:01:18.032Z,19392.00
2018-05-10T08:02:18.137Z,18592.00
2018-05-10T08:03:18.031Z,16080.00
2018-05-10T08:04:18.036Z,17116.00
2018-05-10T08:05:18.026Z,19456.00
2018-05-10T08:06:18.032Z,22144.00
2018-05-10T08:07:18.860Z,24832.00
2018-05-10T08:08:18.050Z,25120.00
2018-05-10T08:09:18.026Z,27200.00
2018-05-10T08:10:18.038Z,29600.00
2018-05-10T08:11:18.024Z,35776.00
2018-05-10T08:12:18.020Z,31296.00
2018-05-10T08:13:18.017Z,36928.00
2018-05-10T08:14:18.769Z,31552.00
2018-05-10T08:15:18.768Z,31360.00
2018-05-10T08:16:18.025Z,34176.00
2018-05-10T08:17:18.110Z,26176.00
2018-05-10T08:18:18.037Z,23872.00
2018-05-10T08:19:18.036Z,24768.00
2018-05-10T08:20:18.050Z,19904.00
2018-05-10T08:21:18.040Z,22112.00
2018-05-10T08:22:18.064Z,23680.00
2018-05-10T08:23:18.033Z,24128.00
2018-05-10T08:24:18.858Z,24544.00
2018-05-10T08:25:18.038Z,24960.00
2018-05-10T08:26:18.039Z,25440.00
2018-05-10T08:27:18.036Z,26112.00
2018-05-10T08:28:18.041Z,25248.00
2018-05-10T08:29:18.043Z,30208.00
2018-05-10T08:30:18.150Z,31168.00
2018-05-10T08:31:18.043Z,30528.00
2018-05-10T08:32:18.038Z,28320.00
2018-05-10T08:33:18.048Z,23424.00
2018-05-10T08:34:18.049Z,18944.00
2018-05-10T08:35:18.051Z,19104.00
2018-05-10T08:36:18.057Z,23456.00
2018-05-10T08:37:18.058Z,24000.00
2018-05-10T08:38:18.059Z,29472.00
2018-05-10T08:39:18.055Z,35840.00
2018-05-10T08:40:18.045Z,44864.00
2018-05-10T08:41:18.059Z,39968.00
2018-05-10T08:42:18.077Z,40704.00
2018-05-10T08:43:18.069Z,32032.00
2018-05-10T08:44:18.065Z,34336.00
2018-05-10T08:45:18.071Z,50368.00
2018-05-10T08:46:18.108Z,43328.00
2018-05-10T08:47:18.124Z,35168.00
2018-05-10T08:48:18.081Z,38624.00
2018-05-10T08:49:18.086Z,90048.00
2018-05-10T08:50:18.115Z,67104.00
2018-05-10T08:51:18.097Z,64032.00
2018-05-10T08:52:18.103Z,102560.00
2018-05-10T08:53:18.113Z,49728.00
2018-05-10T08:54:18.117Z,78912.00
2018-05-10T08:55:18.125Z,30688.00
2018-05-10T08:56:18.125Z,52096.00
2018-05-10T08:57:18.166Z,27040.00
2018-05-10T08:58:18.145Z,29888.00
2018-05-10T08:59:18.154Z,27488.00
2018-05-10T09:00:18.160Z,26080.00
2018-05-10T09:01:18.172Z,26080.00
2018-05-10T09:02:18.184Z,27136.00
2018-05-10T09:03:18.199Z,24288.00
2018-05-10T09:04:18.192Z,24288.00
2018-05-10T09:05:18.197Z,25536.00
2018-05-10T09:06:18.203Z,26784.00
2018-05-10T09:07:18.213Z,28576.00
2018-05-10T09:08:18.255Z,25120.00
2018-05-10T09:09:18.224Z,28160.00
2018-05-10T09:10:18.232Z,26624.00
2018-05-10T09:11:18.241Z,27328.00
2018-05-10T09:12:18.248Z,27648.00
2018-05-10T09:13:18.239Z,29984.00
2018-05-10T09:14:18.241Z,31392.00
2018-05-10T09:15:18.267Z,32160.00
2018-05-10T09:16:18.251Z,31552.00
2018-05-10T09:17:18.266Z,31456.00
2018-05-10T09:18:18.280Z,32320.00
2018-05-10T09:19:18.280Z,32704.00
2018-05-10T09:20:18.367Z,32416.00
2018-05-10T09:21:18.287Z,32768.00
2018-05-10T09:22:18.292Z,34400.00
2018-05-10T09:23:18.294Z,36640.00
2018-05-10T09:24:18.302Z,35712.00
2018-05-10T09:25:32.902Z,35744.00
2018-05-10T09:26:18.309Z,40640.00
2018-05-10T09:27:18.323Z,35744.00
2018-05-10T09:28:18.326Z,42880.00
2018-05-10T09:29:18.326Z,42432.00
2018-05-10T09:30:18.333Z,49600.00
2018-05-10T09:31:18.339Z,49568.00
2018-05-10T09:32:18.346Z,48640.00
2018-05-10T09:33:18.352Z,48288.00
2018-05-10T09:34:18.361Z,52768.00
2018-05-10T09:35:18.380Z,47808.00
2018-05-10T09:36:18.384Z,57312.00
2018-05-10T09:37:18.386Z,58944.00
2018-05-10T09:38:18.392Z,40864.00
2018-05-10T09:39:18.435Z,47040.00
2018-05-10T09:40:18.416Z,44576.00
2018-05-10T09:41:18.408Z,43424.00
2018-05-10T09:42:18.417Z,38816.00
2018-05-10T09:43:18.427Z,37760.00
2018-05-10T09:44:18.430Z,35264.00
2018-05-10T09:45:18.439Z,31296.00
2018-05-10T09:46:18.463Z,24320.00
2018-05-10T09:47:18.452Z,23488.00
2018-05-10T09:48:18.463Z,22208.00
2018-05-10T09:49:18.464Z,17152.00
2018-05-10T09:50:18.472Z,15368.00
2018-05-10T09:51:18.480Z,13504.00
2018-05-10T09:52:18.484Z,14540.00
2018-05-10T09:53:18.490Z,17056.00
2018-05-10T09:54:18.496Z,17920.00
2018-05-10T09:55:18.504Z,17760.00
2018-05-10T09:56:18.507Z,14812.00
2018-05-10T09:57:18.511Z,14484.00
2018-05-10T09:58:18.515Z,13464.00
2018-05-10T09:59:18.521Z,11072.00
2018-05-10T10:00:18.530Z,13932.00
2018-05-10T10:01:18.527Z,19744.00
2018-05-10T10:02:18.531Z,23552.00
2018-05-10T10:03:18.536Z,23872.00
2018-05-10T10:04:18.537Z,24704.00
2018-05-10T10:05:18.557Z,26496.00
2018-05-10T10:06:18.570Z,25472.00
2018-05-10T10:07:18.611Z,25568.00
2018-05-10T10:08:18.548Z,26976.00
2018-05-10T10:09:18.575Z,27584.00
2018-05-10T10:10:18.555Z,28032.00
2018-05-10T10:11:18.576Z,27616.00
2018-05-10T10:12:18.563Z,27712.00
2018-05-10T10:13:18.565Z,26720.00
2018-05-10T10:14:18.607Z,25056.00
2018-05-10T10:15:18.571Z,23616.00
2018-05-10T10:16:18.572Z,25344.00
2018-05-10T10:17:18.572Z,25984.00
2018-05-10T10:18:18.580Z,24448.00
2018-05-10T10:19:18.582Z,20832.00
2018-05-10T10:20:18.600Z,20992.00
2018-05-10T10:21:18.606Z,17888.00
2018-05-10T10:22:18.592Z,15248.00
2018-05-10T10:23:18.597Z,16132.00
2018-05-10T10:24:18.607Z,15800.00
2018-05-10T10:25:18.664Z,13948.00
2018-05-10T10:26:18.603Z,14212.00
2018-05-10T10:27:18.625Z,15796.00
2018-05-10T10:28:18.607Z,15452.00
2018-05-10T10:29:18.609Z,17376.00
2018-05-10T10:30:18.622Z,14632.00
2018-05-10T10:31:18.612Z,14844.00
2018-05-10T10:32:18.642Z,16736.00
2018-05-10T10:33:18.614Z,15976.00
2018-05-10T10:34:18.615Z,17824.00
2018-05-10T10:35:18.610Z,16004.00
2018-05-10T10:36:18.623Z,11188.00
2018-05-10T10:37:18.614Z,11668.00
2018-05-10T10:38:18.726Z,15140.00
2018-05-10T10:39:18.620Z,13752.00
2018-05-10T10:40:18.650Z,14380.00
2018-05-10T10:41:18.640Z,19840.00
2018-05-10T10:42:18.634Z,19712.00
2018-05-10T10:43:18.639Z,18976.00
2018-05-10T10:44:18.647Z,19072.00
2018-05-10T10:45:18.732Z,19008.00
2018-05-10T10:46:18.644Z,21504.00
2018-05-10T10:47:18.655Z,23808.00
2018-05-10T10:48:18.641Z,27296.00
2018-05-10T10:49:18.650Z,27808.00
2018-05-10T10:50:18.646Z,25408.00
2018-05-10T10:51:18.646Z,25472.00
2018-05-10T10:52:18.648Z,28064.00
2018-05-10T10:53:18.649Z,28064.00
2018-05-10T10:54:18.650Z,26208.00
2018-05-10T10:55:18.639Z,28992.00
2018-05-10T10:56:18.633Z,30752.00
2018-05-10T10:57:18.649Z,29824.00
2018-05-10T10:58:18.647Z,28000.00
2018-05-10T10:59:18.649Z,30272.00
2018-05-10T11:00:18.647Z,24768.00
2018-05-10T11:01:18.660Z,26784.00
2018-05-10T11:02:18.671Z,28576.00
2018-05-10T11:03:18.676Z,30464.00
2018-05-10T11:04:18.661Z,29856.00
2018-05-10T11:05:18.663Z,29632.00
2018-05-10T11:06:18.665Z,30592.00
2018-05-10T11:07:18.695Z,31680.00
2018-05-10T11:08:18.676Z,28960.00
2018-05-10T11:09:18.678Z,28128.00
2018-05-10T11:10:18.679Z,31904.00
2018-05-10T11:11:18.685Z,33760.00
2018-05-10T11:12:18.690Z,34944.00
2018-05-10T11:13:18.693Z,35744.00
2018-05-10T11:14:18.698Z,36544.00
2018-05-10T11:15:18.709Z,35904.00
2018-05-10T11:16:18.708Z,34976.00
2018-05-10T11:17:18.706Z,36608.00
2018-05-10T11:18:18.706Z,37568.00
2018-05-10T11:19:18.710Z,38208.00
2018-05-10T11:20:18.725Z,32384.00
2018-05-10T11:21:18.719Z,35296.00
2018-05-10T11:22:18.727Z,32768.00
2018-05-10T11:23:18.733Z,26496.00
2018-05-10T11:24:18.740Z,30208.00
2018-05-10T11:25:18.739Z,36064.00
2018-05-10T11:26:18.740Z,31296.00
2018-05-10T11:27:18.788Z,28480.00
2018-05-10T11:28:18.749Z,30112.00
2018-05-10T11:29:18.758Z,24384.00
2018-05-10T11:30:18.759Z,25056.00
2018-05-10T11:31:18.762Z,29568.00
2018-05-10T11:32:18.767Z,28320.00
2018-05-10T11:33:18.852Z,24448.00
2018-05-10T11:34:18.780Z,25920.00
2018-05-10T11:35:19.335Z,29024.00
2018-05-10T11:36:19.335Z,29536.00
2018-05-10T11:37:18.785Z,25504.00
2018-05-10T11:38:18.952Z,23872.00
2018-05-10T11:39:18.790Z,23456.00
2018-05-10T11:40:18.796Z,26944.00
2018-05-10T11:41:18.820Z,38112.00
2018-05-10T11:42:18.802Z,42176.00
2018-05-10T11:43:18.807Z,38464.00
2018-05-10T11:44:18.811Z,37376.00
2018-05-10T11:45:18.811Z,46304.00
2018-05-10T11:46:18.824Z,44128.00
2018-05-10T11:47:18.814Z,26368.00
2018-05-10T11:48:18.812Z,22048.00
2018-05-10T11:49:18.825Z,16092.00
2018-05-10T11:50:18.830Z,12256.00
2018-05-10T11:51:18.828Z,11964.00
2018-05-10T11:52:18.874Z,14536.00
2018-05-10T11:53:18.846Z,15068.00
2018-05-10T11:54:18.857Z,9752.00
2018-05-10T11:55:18.852Z,12124.00
2018-05-10T11:56:19.416Z,11604.00
2018-05-10T11:57:18.894Z,12072.00
2018-05-10T11:58:18.855Z,18592.00
2018-05-10T11:59:18.862Z,17280.00
2018-05-10T12:00:18.859Z,13152.00
2018-05-10T12:01:18.882Z,20064.00
2018-05-10T12:02:18.870Z,19840.00
2018-05-10T12:03:18.865Z,18624.00
2018-05-10T12:04:18.865Z,16928.00
2018-05-10T12:05:18.868Z,17088.00
2018-05-10T12:06:18.864Z,25120.00
2018-05-10T12:07:18.874Z,36288.00
2018-05-10T12:08:18.871Z,33472.00
2018-05-10T12:09:18.875Z,29120.00
2018-05-10T12:10:18.883Z,27936.00
2018-05-10T12:11:18.891Z,23008.00
2018-05-10T12:12:18.871Z,22848.00
2018-05-10T12:13:18.956Z,36032.00
2018-05-10T12:14:18.878Z,40672.00
2018-05-10T12:15:18.883Z,46720.00
2018-05-10T12:16:18.884Z,45568.00
2018-05-10T12:17:18.881Z,40960.00
2018-05-10T12:18:18.881Z,31936.00
2018-05-10T12:19:18.950Z,21760.00
2018-05-10T12:20:18.956Z,20864.00
2018-05-10T12:21:18.897Z,22240.00
2018-05-10T12:22:18.921Z,20832.00
2018-05-10T12:23:18.906Z,30624.00
2018-05-10T12:24:19.421Z,33856.00
2018-05-10T12:25:18.918Z,25152.00
2018-05-10T12:26:18.928Z,15640.00
2018-05-10T12:27:18.921Z,18432.00
2018-05-10T12:28:18.911Z,31936.00
2018-05-10T12:29:18.935Z,35584.00
2018-05-10T12:30:18.950Z,36608.00
2018-05-10T12:31:18.921Z,40704.00
2018-05-10T12:32:18.935Z,39584.00
2018-05-10T12:33:18.930Z,34368.00
2018-05-10T12:34:18.943Z,34912.00
2018-05-10T12:35:18.939Z,32608.00
2018-05-10T12:36:18.947Z,31424.00
2018-05-10T12:37:18.960Z,32608.00
2018-05-10T12:38:18.951Z,29984.00
2018-05-10T12:39:18.954Z,28608.00
2018-05-10T12:40:18.959Z,27584.00
2018-05-10T12:41:18.978Z,20768.00
2018-05-10T12:42:18.968Z,21920.00